Time;durP1;ratioP1;P1;durP2;ratioP2;P2;SDS_P1;SDS_P2;PMS_P1;PMS_P2;Temp;Humidity;BMP_temperature;BMP_pressure;BME280_temperature;BME280_humidity;BME280_pressure;Samples;Min_cycle;Max_cycle;Signal;HPM_P1;HPM_P2
2023/02/14 00:01:21;;;;;;;23.30;14.23;;;;;;;6.92;100.00;101344.59;4937816;28;20452;-78
2023/02/14 00:03:48;;;;;;;22.65;13.73;;;;;;;6.93;100.00;101342.78;4935834;28;20038;-80
2023/02/14 00:06:14;;;;;;;24.98;15.25;;;;;;;6.93;100.00;101345.41;4973244;28;20035;-79
2023/02/14 00:08:43;;;;;;;29.60;14.65;;;;;;;6.99;100.00;101336.31;4937455;28;20042;-80
2023/02/14 00:11:10;;;;;;;26.73;14.63;;;;;;;6.97;100.00;101343.44;4938716;28;20034;-81
2023/02/14 00:13:36;;;;;;;27.15;13.50;;;;;;;6.99;100.00;101350.28;4942712;28;20090;-81
2023/02/14 00:16:02;;;;;;;22.95;13.80;;;;;;;7.00;100.00;101348.50;4970278;28;20049;-81
2023/02/14 00:19:02;;;;;;;23.67;15.18;;;;;;;6.98;100.00;101345.13;4936927;28;20031;-80
2023/02/14 00:21:14;;;;;;;23.65;14.27;;;;;;;6.95;100.00;101336.50;4969252;28;20045;-80
2023/02/14 00:23:39;;;;;;;27.33;14.23;;;;;;;6.92;100.00;101349.00;4958440;28;20087;-81
2023/02/14 00:26:13;;;;;;;27.85;14.98;;;;;;;6.90;100.00;101345.63;4969211;28;20442;-81
2023/02/14 00:28:39;;;;;;;33.35;15.93;;;;;;;6.84;100.00;101349.47;4932852;28;20114;-81
2023/02/14 00:31:05;;;;;;;27.00;15.45;;;;;;;6.81;100.00;101354.94;4935993;28;20039;-81
2023/02/14 00:33:30;;;;;;;27.17;15.18;;;;;;;6.82;100.00;101351.34;4952573;28;20098;-81
2023/02/14 00:35:56;;;;;;;28.70;15.48;;;;;;;6.78;100.00;101336.75;4968139;28;20402;-81
2023/02/14 00:38:22;;;;;;;30.02;15.00;;;;;;;6.73;100.00;101330.91;4946193;28;20084;-80
2023/02/14 00:40:48;;;;;;;23.70;14.88;;;;;;;6.73;100.00;101325.66;4967766;28;20066;-81
2023/02/14 00:43:13;;;;;;;26.30;15.55;;;;;;;6.65;100.00;101326.16;4948267;28;20039;-80
2023/02/14 00:45:39;;;;;;;32.60;15.48;;;;;;;6.68;100.00;101320.72;4954694;28;20654;-80
2023/02/14 00:48:05;;;;;;;26.95;15.15;;;;;;;6.73;100.00;101320.41;4955207;28;20034;-80
2023/02/14 00:50:31;;;;;;;29.45;15.63;;;;;;;6.75;100.00;101319.41;4968206;28;20101;-80
2023/02/14 00:52:56;;;;;;;25.38;16.63;;;;;;;6.73;100.00;101318.63;4975879;28;20042;-80
2023/02/14 00:55:23;;;;;;;29.17;15.63;;;;;;;6.75;100.00;101313.28;4957568;28;20110;-81
2023/02/14 00:57:48;;;;;;;25.85;15.70;;;;;;;6.77;100.00;101309.59;4939545;28;20111;-81
2023/02/14 01:00:14;;;;;;;32.35;15.30;;;;;;;6.74;100.00;101307.19;4945022;28;20043;-81
2023/02/14 01:02:40;;;;;;;30.33;14.63;;;;;;;6.74;100.00;101301.91;4961597;28;20755;-79
2023/02/14 01:05:07;;;;;;;23.55;14.27;;;;;;;6.75;100.00;101319.41;4953280;28;20035;-80
2023/02/14 01:07:32;;;;;;;29.10;15.38;;;;;;;6.73;100.00;101299.38;4916072;28;20085;-80
2023/02/14 01:09:58;;;;;;;29.80;15.63;;;;;;;6.72;100.00;101295.09;4942179;28;20491;-80
2023/02/14 01:12:24;;;;;;;27.30;14.10;;;;;;;6.70;100.00;101282.88;4957306;28;20087;-80
2023/02/14 01:14:50;;;;;;;28.20;15.38;;;;;;;6.76;100.00;101280.81;4951621;28;20038;-80
2023/02/14 01:17:18;;;;;;;32.00;12.70;;;;;;;6.79;100.00;101286.72;4964927;28;20220;-80
2023/02/14 01:19:46;;;;;;;22.25;13.00;;;;;;;6.86;100.00;101281.06;4974713;28;20042;-80
2023/02/14 01:22:12;;;;;;;26.50;14.25;;;;;;;6.97;100.00;101285.63;4934848;29;20495;-80
2023/02/14 01:24:38;;;;;;;21.70;13.77;;;;;;;6.98;100.00;101279.41;4941033;28;20482;-81
2023/02/14 01:27:03;;;;;;;24.60;13.55;;;;;;;6.97;100.00;101275.97;4953267;28;20475;-80
2023/02/14 01:29:31;;;;;;;26.80;13.48;;;;;;;7.00;100.00;101274.91;4965268;28;21087;-80
2023/02/14 01:31:56;;;;;;;24.60;13.93;;;;;;;7.05;100.00;101265.78;4973918;28;20028;-80
2023/02/14 01:34:23;;;;;;;27.00;13.70;;;;;;;7.09;100.00;101269.03;4950158;28;20045;-80
2023/02/14 01:36:49;;;;;;;28.40;14.88;;;;;;;7.08;100.00;101272.63;4948872;28;20039;-80
2023/02/14 01:39:16;;;;;;;27.80;15.32;;;;;;;7.11;100.00;101261.91;4965925;28;20487;-80
2023/02/14 01:41:48;;;;;;;34.28;14.80;;;;;;;7.15;100.00;101254.66;4939488;28;20038;-80
2023/02/14 01:44:17;;;;;;;19.10;12.77;;;;;;;7.15;100.00;101249.41;4942275;28;20042;-80
2023/02/14 01:46:45;;;;;;;26.02;12.50;;;;;;;7.18;100.00;101242.13;4960090;28;20606;-80
2023/02/14 01:49:24;;;;;;;28.88;13.38;;;;;;;7.24;100.00;101237.41;4973814;28;20446;-81
2023/02/14 01:51:55;;;;;;;33.75;14.23;;;;;;;7.20;100.00;101239.41;4965513;28;20047;-80
2023/02/14 01:54:24;;;;;;;28.92;14.43;;;;;;;7.23;100.00;101223.41;4958698;28;20038;-80
2023/02/14 01:56:56;;;;;;;20.80;13.48;;;;;;;7.23;100.00;101212.91;4951250;28;20035;-80
2023/02/14 01:59:27;;;;;;;22.65;12.82;;;;;;;7.24;100.00;101225.13;4933494;28;20046;-80
2023/02/14 02:01:53;;;;;;;26.73;13.50;;;;;;;7.23;100.00;101220.78;4939905;28;20042;-80
2023/02/14 02:04:25;;;;;;;26.40;12.85;;;;;;;7.25;100.00;101220.69;4943841;28;20076;-82
2023/02/14 02:06:59;;;;;;;24.52;13.48;;;;;;;7.28;100.00;101217.84;4948460;28;20114;-79
2023/02/14 02:09:32;;;;;;;;;;;;;;;7.27;100.00;101214.41;4965919;28;20096;-81
2023/02/14 02:12:00;;;;;;;26.67;13.25;;;;;;;7.32;100.00;101211.47;4968621;28;20265;-81
2023/02/14 02:14:27;;;;;;;24.50;13.50;;;;;;;7.32;100.00;101209.69;4952112;28;20037;-80
2023/02/14 02:17:11;;;;;;;20.73;12.55;;;;;;;7.39;100.00;101198.72;4956072;28;20533;-79
2023/02/14 02:19:53;;;;;;;27.60;11.63;;;;;;;7.43;100.00;101202.81;4950020;28;20476;-80
2023/02/14 02:22:22;;;;;;;21.55;12.05;;;;;;;7.43;100.00;101201.06;4965638;28;20467;-80
2023/02/14 02:25:17;;;;;;;28.98;12.43;;;;;;;7.51;100.00;101189.16;4960160;28;20029;-80
2023/02/14 02:28:08;;;;;;;24.67;12.70;;;;;;;7.57;100.00;101194.84;4975914;28;20070;-80
2023/02/14 02:31:00;;;;;;;34.50;12.80;;;;;;;7.64;100.00;101186.50;4952888;28;20049;-80
2023/02/14 02:33:51;;;;;;;21.30;12.23;;;;;;;7.66;100.00;101174.09;4967389;28;20072;-80
2023/02/14 02:36:44;;;;;;;29.48;12.73;;;;;;;7.66;100.00;101180.19;4966128;28;20026;-80
2023/02/14 02:39:33;;;;;;;27.13;12.68;;;;;;;7.63;100.00;101188.28;4967538;28;20086;-79
2023/02/14 02:42:26;;;;;;;22.83;12.55;;;;;;;7.65;100.00;101175.03;4932532;29;20035;-80
2023/02/14 02:45:17;;;;;;;25.58;12.23;;;;;;;7.65;100.00;101180.28;4937604;28;20054;-80
2023/02/14 02:48:03;;;;;;;18.05;12.45;;;;;;;7.69;100.00;101166.81;4958492;28;20353;-79
2023/02/14 02:53:28;;;;;;;29.15;12.55;;;;;;;7.72;100.00;101178.09;4956257;28;19928;-79
2023/02/14 02:58:56;;;;;;;32.47;12.07;;;;;;;7.80;100.00;101183.66;4950499;29;20432;-80
2023/02/14 03:01:41;;;;;;;30.42;13.98;;;;;;;7.86;100.00;101187.63;4952342;28;20494;-80
2023/02/14 03:06:56;;;;;;;25.35;12.13;;;;;;;7.87;100.00;101170.91;4956853;28;20070;-80
2023/02/14 03:09:21;;;;;;;24.55;13.32;;;;;;;7.89;100.00;101175.09;4937052;28;20034;-80
2023/02/14 03:12:38;;;;;;;24.52;12.95;;;;;;;7.93;100.00;101171.28;4929426;28;20510;-80
2023/02/14 03:15:07;;;;;;;24.08;11.68;;;;;;;7.96;100.00;101161.50;4943508;28;20030;-79
2023/02/14 03:17:57;;;;;;;29.50;13.45;;;;;;;7.98;100.00;101154.34;4946343;28;20070;-80
2023/02/14 03:20:29;;;;;;;29.02;13.80;;;;;;;7.97;100.00;101152.66;4950550;28;20023;-80
2023/02/14 03:23:14;;;;;;;23.10;11.32;;;;;;;8.01;100.00;101162.03;4955534;28;20113;-80
2023/02/14 03:26:06;;;;;;;22.63;12.05;;;;;;;8.03;100.00;101149.56;4957592;28;20130;-80
2023/02/14 03:29:11;;;;;;;25.85;12.90;;;;;;;8.02;100.00;101146.13;4953100;28;20035;-80
2023/02/14 03:32:00;;;;;;;28.98;12.38;;;;;;;8.00;100.00;101141.91;4949209;28;20034;-80
2023/02/14 03:34:36;;;;;;;25.75;11.65;;;;;;;8.04;100.00;101149.47;4928748;28;20039;-80
2023/02/14 03:37:09;;;;;;;26.95;13.27;;;;;;;8.06;100.00;101133.56;4941175;28;20149;-81
2023/02/14 03:40:05;;;;;;;25.88;12.13;;;;;;;8.09;100.00;101133.34;4924135;28;20830;-80
2023/02/14 03:42:42;;;;;;;21.77;11.65;;;;;;;8.10;100.00;101132.41;4958667;28;20048;-80
2023/02/14 03:45:15;;;;;;;31.08;11.88;;;;;;;8.11;100.00;101122.69;4950716;28;20372;-78
2023/02/14 03:47:43;;;;;;;30.45;13.35;;;;;;;8.10;100.00;101135.03;4967764;28;20109;-80
2023/02/14 03:50:16;;;;;;;23.17;12.15;;;;;;;8.12;100.00;101121.75;4974214;28;20018;-80
2023/02/14 03:52:44;;;;;;;21.67;11.75;;;;;;;8.13;100.00;101121.66;4950255;28;20054;-80
2023/02/14 03:55:15;;;;;;;20.27;11.25;;;;;;;8.12;100.00;101122.59;4955062;28;20662;-79
2023/02/14 03:57:47;;;;;;;26.05;11.30;;;;;;;8.12;100.00;101122.59;4934728;28;20499;-79
2023/02/14 04:00:14;;;;;;;22.17;12.63;;;;;;;8.12;100.00;101121.75;4936822;28;20374;-81
2023/02/14 04:02:46;;;;;;;24.23;12.25;;;;;;;8.18;100.00;101114.25;4944238;28;20035;-78
2023/02/14 04:05:20;;;;;;;30.73;13.13;;;;;;;8.18;100.00;101124.78;4969573;28;20035;-79
2023/02/14 04:07:49;;;;;;;22.23;11.63;;;;;;;8.18;100.00;101129.22;4936567;28;20027;-80
2023/02/14 04:10:16;;;;;;;22.02;11.68;;;;;;;8.19;100.00;101125.63;4952506;28;20070;-79
2023/02/14 04:12:42;;;;;;;31.42;13.30;;;;;;;8.21;100.00;101112.34;4952202;28;20090;-80
2023/02/14 04:15:08;;;;;;;33.55;13.73;;;;;;;8.23;100.00;101110.44;4937191;28;20082;-80
2023/02/14 04:20:18;;;;;;;27.67;11.88;;;;;;;8.26;100.00;101104.94;4934734;28;20066;-80
2023/02/14 04:22:45;;;;;;;26.88;12.70;;;;;;;8.26;100.00;101102.31;4922578;28;20491;-80
2023/02/14 04:25:13;;;;;;;23.65;11.00;;;;;;;8.32;100.00;101096.59;4946317;28;20472;-78
2023/02/14 04:27:39;;;;;;;31.20;12.00;;;;;;;8.31;100.00;101105.47;4928780;29;20452;-80
2023/02/14 04:30:06;;;;;;;26.67;12.30;;;;;;;8.32;100.00;101104.50;4965819;28;20474;-79
2023/02/14 04:32:31;;;;;;;25.75;11.55;;;;;;;8.32;100.00;101102.72;4971294;28;20034;-80
2023/02/14 04:34:57;;;;;;;42.80;12.25;;;;;;;8.36;100.00;101105.13;4937289;28;20181;-80
2023/02/14 04:37:23;;;;;;;30.30;11.90;;;;;;;8.38;100.00;101093.50;4922861;28;20535;-80
2023/02/14 04:39:49;;;;;;;30.55;11.82;;;;;;;8.38;100.00;101100.56;4936717;28;20042;-80
2023/02/14 04:42:15;;;;;;;26.95;10.95;;;;;;;8.41;100.00;101098.53;4937008;28;20027;-80
2023/02/14 04:44:41;;;;;;;27.20;11.13;;;;;;;8.45;100.00;101091.25;4942548;28;20039;-80
2023/02/14 04:47:07;;;;;;;26.77;10.93;;;;;;;8.47;100.00;101099.91;4970971;28;20041;-80
2023/02/14 04:49:33;;;;;;;23.83;10.88;;;;;;;8.50;100.00;101085.66;4927124;28;20039;-80
2023/02/14 04:51:59;;;;;;;29.98;10.35;;;;;;;8.50;100.00;101097.03;4956858;28;20050;-80
2023/02/14 04:54:25;;;;;;;23.95;10.50;;;;;;;8.52;100.00;101100.38;4951414;28;20039;-80
2023/02/14 04:56:51;;;;;;;25.88;11.00;;;;;;;8.53;100.00;101096.81;4964018;28;20038;-80
2023/02/14 04:59:16;;;;;;;28.23;9.95;;;;;;;8.56;100.00;101101.88;4961748;28;20026;-79
2023/02/14 05:01:42;;;;;;;30.23;10.63;;;;;;;8.58;100.00;101095.63;4939299;28;20054;-80
2023/02/14 05:04:09;;;;;;;22.58;9.50;;;;;;;8.60;100.00;101093.75;4953903;28;20034;-79
2023/02/14 05:06:34;;;;;;;29.38;9.10;;;;;;;8.61;100.00;101098.91;4956242;28;20482;-80
2023/02/14 05:09:02;;;;;;;24.52;10.40;;;;;;;8.69;100.00;101091.22;4955109;28;20111;-80
2023/02/14 05:11:28;;;;;;;26.50;10.10;;;;;;;8.65;100.00;101089.78;4957098;28;20046;-79
2023/02/14 05:13:54;;;;;;;23.00;10.05;;;;;;;8.66;100.00;101099.38;4979465;28;20026;-79
2023/02/14 05:16:20;;;;;;;21.42;9.88;;;;;;;8.64;100.00;101087.28;4947872;28;20038;-79
2023/02/14 05:18:46;;;;;;;32.40;10.43;;;;;;;8.64;100.00;101095.19;4927460;28;20035;-80
2023/02/14 05:21:12;;;;;;;23.98;9.05;;;;;;;8.65;100.00;101099.47;4937981;29;20442;-79
2023/02/14 05:23:38;;;;;;;21.73;9.20;;;;;;;8.69;100.00;101091.22;4980182;28;20037;-79
2023/02/14 05:26:04;;;;;;;30.63;10.13;;;;;;;8.72;100.00;101091.97;4943773;28;20758;-79
2023/02/14 05:28:31;;;;;;;28.42;10.40;;;;;;;8.71;100.00;101088.50;4952981;28;20031;-79
2023/02/14 05:30:57;;;;;;;27.75;10.00;;;;;;;8.69;100.00;101085.94;4928072;28;20150;-80
2023/02/14 05:33:23;;;;;;;29.80;9.75;;;;;;;8.77;100.00;101087.19;4961278;28;20019;-80
2023/02/14 05:35:49;;;;;;;32.35;9.63;;;;;;;8.74;100.00;101090.91;4961918;28;20034;-79
2023/02/14 05:38:14;;;;;;;27.95;9.65;;;;;;;8.83;100.00;101088.50;4973550;28;20023;-79
2023/02/14 05:40:42;;;;;;;28.42;9.95;;;;;;;8.84;100.00;101082.28;4957826;28;20048;-80
2023/02/14 05:43:08;;;;;;;34.85;10.18;;;;;;;8.84;100.00;101104.19;4933230;28;20042;-80
2023/02/14 05:45:34;;;;;;;29.85;8.77;;;;;;;8.79;100.00;101094.00;4978694;28;20030;-80
2023/02/14 05:48:00;;;;;;;24.17;8.90;;;;;;;8.83;100.00;101099.91;4956425;28;20062;-80
2023/02/14 05:50:27;;;;;;;32.00;10.60;;;;;;;8.83;100.00;101099.91;4971643;28;20027;-80
2023/02/14 05:52:54;;;;;;;28.13;9.20;;;;;;;8.88;100.00;101094.28;4955202;28;20051;-80
2023/02/14 05:55:19;;;;;;;24.30;8.85;;;;;;;8.91;100.00;101089.63;4958403;28;20141;-80
2023/02/14 05:57:46;;;;;;;20.25;8.30;;;;;;;8.91;100.00;101088.78;4956140;28;20027;-80
2023/02/14 06:00:13;;;;;;;23.60;8.35;;;;;;;8.91;100.00;101091.41;4968022;28;20031;-80
2023/02/14 06:02:39;;;;;;;24.20;8.43;;;;;;;8.91;100.00;101092.25;4963631;28;20039;-80
2023/02/14 06:05:06;;;;;;;33.63;8.73;;;;;;;8.92;100.00;101095.72;4976434;28;20039;-80
2023/02/14 06:07:32;;;;;;;23.02;8.20;;;;;;;8.92;100.00;101096.56;4972012;28;20027;-80
2023/02/14 06:09:57;;;;;;;25.75;8.05;;;;;;;8.97;100.00;101093.56;4938095;28;20058;-80
2023/02/14 06:12:23;;;;;;;22.90;7.78;;;;;;;8.97;100.00;101093.56;4953186;28;20659;-80
2023/02/14 06:14:49;;;;;;;25.27;8.55;;;;;;;9.00;100.00;101092.50;4969677;28;20501;-80
2023/02/14 06:17:15;;;;;;;17.80;6.80;;;;;;;9.04;100.00;101092.16;4939890;28;20031;-80
2023/02/14 06:19:42;;;;;;;16.83;7.10;;;;;;;9.00;100.00;101092.50;4953832;28;20034;-80
2023/02/14 06:22:08;;;;;;;16.90;7.13;;;;;;;8.99;100.00;101088.19;4973037;28;20037;-81
2023/02/14 06:24:34;;;;;;;14.98;6.82;;;;;;;9.00;100.00;101089.88;4969235;28;20105;-80
2023/02/14 06:27:00;;;;;;;19.48;7.28;;;;;;;8.98;100.00;101084.69;4958092;28;20603;-80
2023/02/14 06:29:26;;;;;;;19.30;6.38;;;;;;;9.01;100.00;101084.47;4954041;28;20038;-80
2023/02/14 06:31:51;;;;;;;26.05;7.38;;;;;;;9.00;100.00;101085.41;4954487;28;20073;-80
2023/02/14 06:34:17;;;;;;;21.88;7.15;;;;;;;9.02;100.00;101090.56;4966360;28;20082;-80
2023/02/14 06:36:43;;;;;;;32.92;7.82;;;;;;;9.02;100.00;101086.16;4942119;28;20398;-80
2023/02/14 06:39:09;;;;;;;25.73;8.13;;;;;;;9.03;100.00;101079.91;4958936;28;20126;-80
2023/02/14 06:41:35;;;;;;;29.33;8.10;;;;;;;9.02;100.00;101075.59;4958498;28;20045;-80
2023/02/14 06:44:00;;;;;;;17.58;8.23;;;;;;;9.05;100.00;101079.78;4970079;28;20026;-80
2023/02/14 06:46:26;;;;;;;27.23;8.13;;;;;;;9.07;100.00;101080.53;4972031;28;20038;-80
2023/02/14 06:48:52;;;;;;;24.23;7.22;;;;;;;9.08;100.00;101079.56;4954757;28;20089;-80
2023/02/14 06:51:18;;;;;;;22.70;7.78;;;;;;;9.10;100.00;101082.91;4953248;28;20097;-80
2023/02/14 06:53:44;;;;;;;25.95;7.55;;;;;;;9.11;100.00;101081.94;4950293;28;20035;-80
2023/02/14 06:56:09;;;;;;;22.73;6.60;;;;;;;9.13;100.00;101109.06;4951044;28;20039;-80
2023/02/14 06:58:35;;;;;;;21.35;7.10;;;;;;;9.13;100.00;101100.28;4959503;28;20027;-77
2023/02/14 07:01:01;;;;;;;19.27;5.65;;;;;;;9.12;100.00;101094.19;4955945;28;20110;-80
2023/02/14 07:03:27;;;;;;;18.05;6.55;;;;;;;9.18;100.00;101095.50;4945061;28;20081;-80
2023/02/14 07:05:53;;;;;;;26.05;7.35;;;;;;;9.18;100.00;101095.50;4934587;29;20042;-81
2023/02/14 07:08:19;;;;;;;30.75;7.63;;;;;;;9.17;100.00;101099.13;4952375;28;20027;-81
2023/02/14 07:10:45;;;;;;;18.77;5.85;;;;;;;9.19;100.00;101094.53;4952060;28;20373;-80
2023/02/14 07:13:11;;;;;;;21.13;7.13;;;;;;;9.18;100.00;101106.91;4951838;28;20043;-81
2023/02/14 07:15:38;;;;;;;35.95;7.45;;;;;;;9.20;100.00;101101.50;4935269;28;20042;-81
2023/02/14 07:18:04;;;;;;;36.15;7.80;;;;;;;9.19;100.00;101099.81;4968132;28;20245;-81
2023/02/14 07:20:29;;;;;;;23.73;5.97;;;;;;;9.20;100.00;101103.31;4941197;29;20035;-81
2023/02/14 07:22:55;;;;;;;21.42;6.05;;;;;;;9.24;100.00;101094.19;4939638;28;20043;-81
2023/02/14 07:25:21;;;;;;;16.60;5.53;;;;;;;9.21;100.00;101100.53;4936750;28;20046;-81
2023/02/14 07:27:48;;;;;;;21.23;5.70;;;;;;;9.24;100.00;101091.53;4943982;28;20086;-81
2023/02/14 07:30:14;;;;;;;23.60;5.63;;;;;;;9.23;100.00;101096.00;4951562;28;20044;-81
2023/02/14 07:32:40;;;;;;;14.00;5.03;;;;;;;9.24;100.00;101107.38;4876764;28;20037;-81
2023/02/14 07:35:07;;;;;;;19.33;5.47;;;;;;;9.27;100.00;101107.16;4928870;29;20067;-81
2023/02/14 07:37:34;;;;;;;17.30;5.55;;;;;;;9.27;100.00;101115.06;4963817;28;20058;-81
2023/02/14 07:40:01;;;;;;;21.70;5.40;;;;;;;9.27;100.00;101112.44;4953353;28;20074;-81
2023/02/14 07:42:27;;;;;;;22.73;5.68;;;;;;;9.30;100.00;101107.75;4948092;28;20035;-81
2023/02/14 07:44:53;;;;;;;19.25;6.07;;;;;;;9.28;100.00;101107.03;4950145;29;20043;-81
2023/02/14 07:47:18;;;;;;;18.60;5.18;;;;;;;9.30;100.00;101114.84;4933982;28;20043;-82
2023/02/14 07:49:44;;;;;;;19.23;6.30;;;;;;;9.33;100.00;101113.75;4945677;28;20042;-82
2023/02/14 07:52:10;;;;;;;18.20;5.40;;;;;;;9.31;100.00;101116.50;4955283;28;20044;-82
2023/02/14 07:54:37;;;;;;;21.38;4.70;;;;;;;9.32;100.00;101115.53;4953520;28;20042;-81
2023/02/14 07:57:04;;;;;;;15.98;5.57;;;;;;;9.35;100.00;101114.47;4967989;28;20062;-81
2023/02/14 07:59:30;;;;;;;22.45;4.95;;;;;;;9.34;100.00;101121.53;4953614;28;20038;-81
2023/02/14 08:01:56;;;;;;;19.95;4.22;;;;;;;9.34;100.00;101120.69;4935975;28;20038;-82
2023/02/14 08:04:24;;;;;;;20.13;4.40;;;;;;;9.37;100.00;101121.31;4952525;28;20042;-82
2023/02/14 08:06:51;;;;;;;17.52;4.72;;;;;;;9.41;100.00;101127.19;4944461;28;20783;-82
2023/02/14 08:09:23;;;;;;;15.73;3.58;;;;;;;9.45;100.00;101130.41;4972662;28;20073;-81
2023/02/14 08:14:41;;;;;;;25.17;4.50;;;;;;;9.47;100.00;101129.34;4962026;28;21390;-81
2023/02/14 08:17:08;;;;;;;12.88;4.18;;;;;;;9.51;100.00;101119.38;4959037;28;20167;-81
2023/02/14 08:19:35;;;;;;;13.55;3.63;;;;;;;9.54;100.00;101129.69;4976910;28;20085;-81
2023/02/14 08:22:02;;;;;;;12.30;3.95;;;;;;;9.55;100.00;101119.03;4960586;28;20081;-81
2023/02/14 08:24:28;;;;;;;22.83;4.13;;;;;;;9.57;100.00;101128.63;4941979;28;20038;-82
2023/02/14 08:26:54;;;;;;;26.00;4.38;;;;;;;9.58;100.00;101125.84;4938941;28;20035;-81
2023/02/14 08:29:19;;;;;;;14.73;4.22;;;;;;;9.60;100.00;101126.59;4936204;28;20069;-81
2023/02/14 08:31:46;;;;;;;18.65;4.20;;;;;;;9.59;100.00;101129.34;4952147;28;20118;-81
2023/02/14 08:34:13;;;;;;;16.40;3.92;;;;;;;9.60;100.00;101131.00;4917587;28;20031;-81
2023/02/14 08:36:39;;;;;;;17.88;4.15;;;;;;;9.61;100.00;101124.75;4971940;28;20034;-81
2023/02/14 08:39:06;;;;;;;24.77;4.00;;;;;;;9.63;100.00;101125.50;4957758;28;20045;-81
2023/02/14 08:41:32;;;;;;;17.98;4.82;;;;;;;9.63;100.00;101126.34;4952577;28;20039;-81
2023/02/14 08:43:58;;;;;;;15.50;3.85;;;;;;;9.62;100.00;101124.66;4941276;28;20058;-81
2023/02/14 08:46:24;;;;;;;12.30;3.83;;;;;;;9.63;100.00;101114.94;4953669;28;20053;-81
2023/02/14 08:48:52;;;;;;;20.75;4.65;;;;;;;9.65;100.00;101127.03;4935014;28;20035;-81
2023/02/14 08:51:18;;;;;;;23.65;5.65;;;;;;;9.67;100.00;101124.28;4955842;28;20054;-83
2023/02/14 08:53:45;;;;;;;17.65;4.70;;;;;;;9.66;100.00;101131.38;4954483;28;20096;-81
2023/02/14 08:56:13;;;;;;;14.82;4.35;;;;;;;9.70;100.00;101123.22;4952480;28;20073;-82
2023/02/14 08:58:39;;;;;;;20.50;3.67;;;;;;;9.71;100.00;101130.16;4953801;28;20109;-81
2023/02/14 09:01:14;;;;;;;24.10;4.00;;;;;;;9.75;100.00;101128.94;4939520;28;20042;-82
2023/02/14 09:03:40;;;;;;;17.85;3.33;;;;;;;9.76;100.00;101133.28;4940541;28;20039;-82
2023/02/14 09:06:08;;;;;;;14.85;4.00;;;;;;;9.77;100.00;101134.94;4969884;28;20046;-82
2023/02/14 09:08:38;;;;;;;20.15;3.78;;;;;;;9.83;100.00;101130.97;4935630;28;20035;-82
2023/02/14 09:11:08;;;;;;;24.85;4.38;;;;;;;9.83;100.00;101139.75;4952195;28;20104;-82
2023/02/14 09:13:34;;;;;;;25.70;5.22;;;;;;;9.82;100.00;101126.66;4956645;28;20042;-81
2023/02/14 09:16:06;;;;;;;23.92;4.53;;;;;;;9.83;100.00;101128.34;4947648;28;20066;-82
2023/02/14 09:18:32;;;;;;;23.85;5.78;;;;;;;9.85;100.00;101134.34;4937634;28;20042;-81
2023/02/14 09:20:58;;;;;;;38.67;6.57;;;;;;;9.85;100.00;101136.97;4942213;28;20129;-82
2023/02/14 09:23:23;;;;;;;41.08;6.78;;;;;;;9.86;100.00;101133.41;4955364;28;20129;-82
2023/02/14 09:25:49;;;;;;;49.28;6.00;;;;;;;9.88;100.00;101134.09;4953800;28;20034;-82
2023/02/14 09:28:15;;;;;;;43.72;6.80;;;;;;;9.91;100.00;101131.22;4957050;28;20738;-82
2023/02/14 09:30:41;;;;;;;32.33;6.25;;;;;;;9.95;100.00;101140.59;4890554;28;20097;-82
2023/02/14 09:33:06;;;;;;;45.50;7.50;;;;;;;9.98;100.00;101132.41;4936282;28;20514;-82
2023/02/14 09:35:32;;;;;;;40.55;6.93;;;;;;;9.98;100.00;101131.56;4942859;28;20039;-82
2023/02/14 09:37:58;;;;;;;38.80;6.95;;;;;;;9.99;100.00;101130.59;4951762;28;20107;-82
2023/02/14 09:40:24;;;;;;;38.78;5.85;;;;;;;10.01;100.00;101124.25;4937345;28;20042;-82
2023/02/14 09:43:14;;;;;;;45.30;6.85;;;;;;;10.08;100.00;101132.47;4954056;28;20033;-82
2023/02/14 09:45:40;;;;;;;33.30;5.22;;;;;;;10.07;100.00;101130.81;4939652;28;20039;-82
2023/02/14 09:48:32;;;;;;;36.28;5.78;;;;;;;10.12;100.00;101133.94;4951413;28;20038;-82
2023/02/14 09:51:02;;;;;;;45.38;6.97;;;;;;;10.11;100.00;101132.28;4942281;28;20586;-83
2023/02/14 09:53:31;;;;;;;32.90;5.20;;;;;;;10.11;100.00;101134.06;4969407;28;20495;-82
2023/02/14 09:56:09;;;;;;;30.08;4.65;;;;;;;10.14;100.00;101132.03;4940089;28;20046;-81
2023/02/14 09:58:46;;;;;;;22.58;5.20;;;;;;;10.17;100.00;101130.91;4934285;28;20058;-81
2023/02/14 10:01:44;;;;;;;29.73;4.85;;;;;;;10.14;100.00;101126.72;4969671;28;20049;-84
2023/02/14 10:04:42;;;;;;;31.33;5.05;;;;;;;10.22;100.00;101138.47;4927877;29;20098;-84
2023/02/14 10:07:38;;;;;;;32.63;5.25;;;;;;;10.17;100.00;101144.97;4921460;28;20071;-81
2023/02/14 10:10:13;;;;;;;31.02;5.45;;;;;;;10.13;100.00;101143.53;4951743;28;20043;-83
2023/02/14 10:12:43;;;;;;;30.48;5.10;;;;;;;10.21;100.00;101150.00;4955125;28;20050;-82
2023/02/14 10:15:32;;;;;;;38.38;6.50;;;;;;;10.17;100.00;101144.13;4957966;28;20030;-83
2023/02/14 10:18:16;;;;;;;44.38;5.97;;;;;;;10.17;100.00;101149.41;4947866;28;20498;-83
2023/02/14 10:20:50;;;;;;;35.17;6.40;;;;;;;10.17;100.00;101150.25;4953660;28;20038;-82
2023/02/14 10:23:34;;;;;;;36.80;6.10;;;;;;;10.20;100.00;101151.81;4948446;28;20050;-83
2023/02/14 10:26:07;;;;;;;30.17;5.70;;;;;;;10.20;100.00;101146.53;4953029;28;20034;-82
2023/02/14 10:28:53;;;;;;;45.30;6.53;;;;;;;10.18;100.00;101149.28;4952696;28;20395;-83
2023/02/14 10:31:28;;;;;;;47.80;7.30;;;;;;;10.22;100.00;101138.47;4944007;28;20428;-83
2023/02/14 10:34:08;;;;;;;45.80;7.00;;;;;;;10.22;100.00;101141.97;4960150;28;20114;-83
2023/02/14 10:36:43;;;;;;;49.67;6.68;;;;;;;10.26;100.00;101147.81;4924451;28;20035;-82
2023/02/14 10:39:27;;;;;;;40.17;6.35;;;;;;;10.25;100.00;101144.34;4934810;28;20043;-83
2023/02/14 10:42:02;;;;;;;43.70;6.43;;;;;;;10.34;100.00;101136.63;4948460;28;20113;-82
2023/02/14 10:44:40;;;;;;;45.13;6.80;;;;;;;10.39;100.00;101142.38;4952909;28;20035;-83
2023/02/14 10:47:45;;;;;;;30.13;5.93;;;;;;;10.48;100.00;101130.25;4952370;28;20046;-82
2023/02/14 10:50:21;;;;;;;27.93;5.80;;;;;;;10.47;100.00;101132.03;4944591;28;20070;-83
2023/02/14 10:53:09;;;;;;;30.60;5.53;;;;;;;10.55;100.00;101131.41;4945328;28;20518;-82
2023/02/14 10:55:58;;;;;;;51.42;6.97;;;;;;;10.58;100.00;101135.59;4957148;28;20065;-82
2023/02/14 10:58:27;;;;;;;38.95;5.93;;;;;;;10.60;100.00;101128.38;4937534;28;20042;-82
2023/02/14 11:01:14;;;;;;;38.70;6.65;;;;;;;10.63;100.00;101128.13;4944565;28;20043;-82
2023/02/14 11:03:51;;;;;;;37.90;6.32;;;;;;;10.63;100.00;101122.84;4957736;28;20042;-82
2023/02/14 11:06:18;;;;;;;39.85;5.57;;;;;;;10.60;100.00;101123.09;4946925;28;20030;-82
2023/02/14 11:08:44;;;;;;;35.65;6.88;;;;;;;10.62;100.00;101123.81;4936313;28;20031;-82
2023/02/14 11:11:23;;;;;;;38.10;6.90;;;;;;;10.64;100.00;101125.34;4947062;28;20034;-82
2023/02/14 11:13:49;;;;;;;29.00;6.40;;;;;;;10.63;100.00;101117.56;4937384;28;20042;-82
2023/02/14 11:16:28;;;;;;;34.55;6.90;;;;;;;10.68;100.00;101131.22;4949691;28;20031;-82
2023/02/14 11:19:09;;;;;;;46.28;6.53;;;;;;;10.67;100.00;101127.75;4957739;28;20039;-82
2023/02/14 11:21:40;;;;;;;41.13;6.47;;;;;;;10.63;100.00;101123.69;4953436;28;20061;-82
2023/02/14 11:24:28;;;;;;;33.53;6.07;;;;;;;10.65;100.00;101123.56;4958262;28;20082;-81
2023/02/14 11:26:58;;;;;;;34.58;6.07;;;;;;;10.66;100.00;101119.94;4952153;28;20046;-82
2023/02/14 11:29:29;;;;;;;42.10;7.78;;;;;;;10.69;100.00;101126.78;4953632;28;20035;-82
2023/02/14 11:31:55;;;;;;;37.00;5.68;;;;;;;10.70;100.00;101131.09;4955412;28;20070;-81
2023/02/14 11:34:31;;;;;;;43.45;6.13;;;;;;;10.68;100.00;101112.72;4961586;28;20031;-82
2023/02/14 11:36:57;;;;;;;33.13;6.53;;;;;;;10.72;100.00;101119.41;4934615;28;20048;-81
2023/02/14 11:39:29;;;;;;;42.72;7.63;;;;;;;10.81;100.00;101119.63;4953545;28;20034;-81
2023/02/14 11:41:59;;;;;;;46.35;7.40;;;;;;;10.83;100.00;101115.06;4942829;28;20487;-82